createdAt,value
2019-02-18T00:00:30.417Z,316.10
2019-02-18T00:03:00.195Z,318.02
2019-02-18T00:05:29.852Z,309.20
2019-02-18T00:07:59.627Z,310.02
2019-02-18T00:10:29.354Z,305.73
2019-02-18T00:12:58.961Z,310.10
2019-02-18T00:15:28.782Z,315.60
2019-02-18T00:17:58.528Z,311.25
2019-02-18T00:20:28.197Z,309.67
2019-02-18T00:22:57.826Z,300.60
2019-02-18T00:25:27.582Z,306.23
2019-02-18T00:27:57.180Z,308.63
2019-02-18T00:30:26.936Z,307.12
2019-02-18T00:32:56.613Z,306.90
2019-02-18T00:35:27.830Z,309.45
2019-02-18T00:37:57.558Z,315.65
2019-02-18T00:40:27.153Z,314.33
2019-02-18T00:42:56.829Z,316.38
2019-02-18T00:45:26.507Z,310.63
2019-02-18T00:47:56.186Z,310.57
2019-02-18T00:50:26.829Z,311.20
2019-02-18T00:52:56.509Z,308.43
2019-02-18T00:55:27.069Z,305.57
2019-02-18T00:57:56.745Z,310.17
2019-02-18T01:00:26.411Z,315.55
2019-02-18T01:02:56.232Z,310.45
2019-02-18T01:05:25.963Z,303.60
2019-02-18T01:07:55.666Z,307.15
2019-02-18T01:10:25.508Z,305.12
2019-02-18T01:12:56.171Z,303.55
2019-02-18T01:15:25.915Z,299.17
2019-02-18T01:17:56.434Z,298.10
2019-02-18T01:20:26.168Z,305.00
2019-02-18T01:22:55.787Z,303.60
2019-02-18T01:25:25.532Z,310.60
2019-02-18T01:27:55.216Z,297.65
2019-02-18T01:30:24.891Z,301.58
2019-02-18T01:32:54.582Z,303.27
2019-02-18T01:35:24.446Z,299.62
2019-02-18T01:37:54.200Z,293.50
2019-02-18T01:40:23.873Z,294.20
2019-02-18T01:42:53.489Z,296.87
2019-02-18T01:45:23.223Z,292.27
2019-02-18T01:47:52.850Z,294.50
2019-02-18T01:50:22.591Z,294.25
2019-02-18T01:52:52.264Z,291.23
2019-02-18T01:55:22.052Z,289.38
2019-02-18T01:57:51.728Z,285.88
2019-02-18T02:00:21.393Z,282.33
2019-02-18T02:02:51.657Z,282.53
2019-02-18T02:05:21.383Z,277.95
2019-02-18T02:07:56.315Z,285.25
2019-02-18T02:10:23.604Z,278.55
2019-02-18T02:12:56.281Z,269.55
2019-02-18T02:15:27.532Z,270.80
2019-02-18T02:17:57.163Z,273.10
2019-02-18T02:20:26.771Z,272.88
2019-02-18T02:22:56.457Z,273.45
2019-02-18T02:25:26.132Z,274.52
2019-02-18T02:27:55.746Z,275.77
2019-02-18T02:30:25.449Z,278.80
2019-02-18T02:32:56.050Z,277.13
2019-02-18T02:35:25.738Z,277.65
2019-02-18T02:38:04.802Z,278.85
2019-02-18T02:40:26.781Z,287.40
2019-02-18T02:42:56.795Z,290.60
2019-02-18T02:45:26.465Z,286.77
2019-02-18T02:47:56.158Z,290.92
2019-02-18T02:50:25.814Z,286.45
2019-02-18T02:52:55.556Z,280.43
2019-02-18T02:55:25.152Z,283.25
2019-02-18T02:57:54.936Z,283.37
2019-02-18T03:00:24.597Z,282.02
2019-02-18T03:02:54.446Z,283.55
2019-02-18T03:05:25.149Z,277.07
2019-02-18T03:07:54.850Z,278.73
2019-02-18T03:10:24.515Z,276.32
2019-02-18T03:12:54.198Z,274.25
2019-02-18T03:15:23.798Z,276.62
2019-02-18T03:17:54.344Z,277.93
2019-02-18T03:20:23.965Z,276.60
2019-02-18T03:22:53.657Z,276.07
2019-02-18T03:25:27.887Z,273.23
2019-02-18T03:28:09.309Z,275.70
2019-02-18T03:30:44.771Z,270.57
2019-02-18T03:33:32.342Z,272.98
2019-02-18T03:36:02.067Z,270.15
2019-02-18T03:38:32.148Z,272.17
2019-02-18T03:41:03.475Z,277.25
2019-02-18T03:43:33.384Z,271.77
2019-02-18T03:46:03.253Z,271.10
2019-02-18T03:48:33.084Z,267.93
2019-02-18T03:51:02.704Z,263.70
2019-02-18T03:53:32.306Z,269.93
2019-02-18T03:56:01.951Z,268.67
2019-02-18T03:58:31.610Z,266.12
2019-02-18T04:01:01.298Z,271.87
2019-02-18T04:03:30.961Z,272.55
2019-02-18T04:06:00.642Z,266.42
2019-02-18T04:08:30.366Z,260.32
2019-02-18T04:11:00.137Z,263.45
2019-02-18T04:13:30.002Z,260.13
2019-02-18T04:15:59.614Z,265.60
2019-02-18T04:18:29.304Z,260.27
2019-02-18T04:20:58.917Z,261.80
2019-02-18T04:23:28.531Z,261.95
2019-02-18T04:25:58.265Z,266.98
2019-02-18T04:28:27.943Z,261.80
2019-02-18T04:30:57.718Z,263.45
2019-02-18T04:33:27.386Z,263.48
2019-02-18T04:35:57.066Z,266.50
2019-02-18T04:38:26.727Z,261.95
2019-02-18T04:40:56.606Z,262.60
2019-02-18T04:43:26.203Z,261.35
2019-02-18T04:45:55.929Z,262.23
2019-02-18T04:48:25.713Z,262.77
2019-02-18T04:50:55.410Z,256.07
2019-02-18T04:53:25.071Z,261.30
2019-02-18T04:55:54.887Z,259.62
2019-02-18T04:58:24.560Z,261.62
2019-02-18T05:00:55.180Z,254.43
2019-02-18T05:03:24.780Z,251.73
2019-02-18T05:05:54.421Z,258.52
2019-02-18T05:08:24.081Z,259.20
2019-02-18T05:10:53.768Z,256.40
2019-02-18T05:13:23.439Z,257.67
2019-02-18T05:15:53.130Z,256.17
2019-02-18T05:18:22.791Z,261.98
2019-02-18T05:20:52.408Z,258.68
2019-02-18T05:23:22.085Z,250.43
2019-02-18T05:25:51.771Z,255.45
2019-02-18T05:28:21.629Z,250.57
2019-02-18T05:30:51.287Z,245.97
2019-02-18T05:33:21.004Z,248.62
2019-02-18T05:35:50.742Z,248.40
2019-02-18T05:38:20.455Z,243.78
2019-02-18T05:40:50.175Z,241.90
2019-02-18T05:43:19.873Z,255.77
2019-02-18T05:45:49.486Z,246.43
2019-02-18T05:48:19.253Z,248.00
2019-02-18T05:50:48.868Z,251.63
2019-02-18T05:53:18.696Z,251.58
2019-02-18T05:55:48.461Z,252.07
2019-02-18T05:58:18.222Z,258.15
2019-02-18T06:00:47.954Z,261.37
2019-02-18T06:03:17.725Z,259.40
2019-02-18T06:05:47.383Z,255.45
2019-02-18T06:08:17.165Z,252.57
2019-02-18T06:10:46.870Z,254.07
2019-02-18T06:13:16.663Z,245.37
2019-02-18T06:15:46.292Z,242.25
2019-02-18T06:18:15.992Z,239.48
2019-02-18T06:20:45.619Z,240.92
2019-02-18T06:23:15.283Z,243.48
2019-02-18T06:25:44.981Z,240.25
2019-02-18T06:28:14.643Z,241.33
2019-02-18T06:30:44.335Z,244.03
2019-02-18T06:33:14.055Z,246.80
2019-02-18T06:35:43.881Z,244.97
2019-02-18T06:38:13.529Z,248.28
2019-02-18T06:40:43.170Z,249.18
2019-02-18T06:43:12.861Z,247.02
2019-02-18T06:45:44.185Z,249.32
2019-02-18T06:48:19.164Z,255.18
2019-02-18T06:50:48.868Z,251.50
2019-02-18T06:53:18.522Z,251.52
2019-02-18T06:55:48.288Z,254.75
2019-02-18T06:58:34.690Z,256.07
2019-02-18T07:01:06.083Z,258.90
2019-02-18T07:03:53.478Z,261.37
2019-02-18T07:06:30.233Z,265.05
2019-02-18T07:09:01.464Z,265.70
2019-02-18T07:11:35.262Z,262.57
2019-02-18T07:14:04.999Z,264.12
2019-02-18T07:16:34.673Z,265.98
2019-02-18T07:19:04.391Z,271.23
2019-02-18T07:21:34.967Z,275.73
2019-02-18T07:24:04.933Z,278.20
2019-02-18T07:26:34.584Z,282.68
2019-02-18T07:29:04.247Z,282.62
2019-02-18T07:31:33.895Z,285.93
2019-02-18T07:34:03.537Z,289.00
2019-02-18T07:36:34.963Z,294.07
2019-02-18T07:39:06.603Z,298.43
2019-02-18T07:41:36.300Z,299.62
2019-02-18T07:44:06.044Z,301.00
2019-02-18T07:46:35.627Z,309.87
2019-02-18T07:49:05.304Z,310.10
2019-02-18T07:51:35.062Z,322.20
2019-02-18T07:54:04.818Z,320.63
2019-02-18T07:56:34.477Z,333.32
2019-02-18T07:59:04.225Z,333.82
2019-02-18T08:01:33.925Z,343.63
2019-02-18T08:04:03.605Z,351.67
2019-02-18T08:06:33.386Z,356.32
2019-02-18T08:09:04.934Z,357.18
2019-02-18T08:11:34.679Z,360.17
2019-02-18T08:14:04.428Z,371.27
2019-02-18T08:16:34.110Z,375.25
2019-02-18T08:19:03.872Z,386.20
2019-02-18T08:21:34.506Z,386.62
2019-02-18T08:24:04.176Z,400.32
2019-02-18T08:26:33.910Z,404.83
2019-02-18T08:29:03.600Z,409.30
2019-02-18T08:31:33.470Z,411.55
2019-02-18T08:34:04.066Z,411.65
2019-02-18T08:36:33.772Z,418.37
2019-02-18T08:39:04.734Z,414.13
2019-02-18T08:41:34.427Z,421.12
2019-02-18T08:44:04.204Z,416.30
2019-02-18T08:46:33.927Z,423.88
2019-02-18T08:49:03.974Z,427.50
2019-02-18T08:51:33.569Z,430.80
2019-02-18T08:54:03.320Z,436.80
2019-02-18T08:56:32.975Z,429.15
2019-02-18T08:59:02.649Z,429.92
2019-02-18T09:01:32.239Z,424.70
2019-02-18T09:04:01.930Z,427.55
2019-02-18T09:06:31.650Z,433.77
2019-02-18T09:09:01.490Z,430.30
2019-02-18T09:11:31.086Z,434.57
2019-02-18T09:14:01.932Z,446.27
2019-02-18T09:16:31.684Z,446.50
2019-02-18T09:19:02.343Z,450.87
2019-02-18T09:21:33.795Z,449.00
2019-02-18T09:24:05.191Z,455.75
2019-02-18T09:26:35.277Z,467.77
2019-02-18T09:29:05.112Z,478.35
2019-02-18T09:31:34.926Z,483.10
2019-02-18T09:34:04.899Z,485.63
2019-02-18T09:36:34.659Z,487.10
2019-02-18T09:39:05.905Z,498.67
2019-02-18T09:41:35.513Z,509.60
2019-02-18T09:44:05.242Z,516.67
2019-02-18T09:46:34.994Z,514.83
2019-02-18T09:49:04.768Z,515.73
2019-02-18T09:51:34.434Z,523.58
2019-02-18T09:54:05.526Z,520.73
2019-02-18T09:56:36.972Z,519.08
2019-02-18T09:59:07.827Z,515.30
2019-02-18T10:01:37.580Z,505.30
2019-02-18T10:04:07.256Z,514.40
2019-02-18T10:06:37.020Z,513.65
2019-02-18T10:09:06.872Z,518.85
2019-02-18T10:11:36.531Z,533.70
2019-02-18T10:14:06.288Z,538.37
2019-02-18T10:16:36.029Z,538.17
2019-02-18T10:19:06.626Z,543.48
2019-02-18T10:21:36.375Z,545.25
2019-02-18T10:24:06.556Z,546.67
2019-02-18T10:26:36.250Z,552.80
2019-02-18T10:29:06.904Z,558.85
2019-02-18T10:31:36.547Z,570.37
2019-02-18T10:34:16.365Z,567.20
2019-02-18T10:36:46.039Z,557.57
2019-02-18T10:39:16.106Z,560.02
2019-02-18T10:41:45.789Z,567.90
2019-02-18T10:44:15.566Z,568.33
2019-02-18T10:46:45.306Z,590.17
2019-02-18T10:49:19.776Z,593.50
2019-02-18T10:51:47.596Z,594.17
2019-02-18T10:54:17.298Z,597.08
2019-02-18T10:56:46.992Z,609.85
2019-02-18T10:59:16.740Z,622.55
2019-02-18T11:01:47.451Z,622.10
2019-02-18T11:04:17.063Z,632.80
2019-02-18T11:06:47.084Z,640.67
2019-02-18T11:09:16.881Z,655.27
2019-02-18T11:11:46.467Z,666.23
2019-02-18T11:14:16.265Z,668.15
2019-02-18T11:16:46.089Z,681.67
2019-02-18T11:19:17.562Z,693.02
2019-02-18T11:21:47.134Z,688.23
2019-02-18T11:24:16.836Z,685.60
2019-02-18T11:26:46.719Z,680.83
2019-02-18T11:29:16.523Z,685.73
2019-02-18T11:31:46.171Z,687.95
2019-02-18T11:34:15.966Z,690.47
2019-02-18T11:36:46.623Z,689.23
2019-02-18T11:39:16.383Z,705.55
2019-02-18T11:41:46.519Z,707.15
2019-02-18T11:44:17.743Z,707.80
2019-02-18T11:46:47.330Z,716.92
2019-02-18T11:49:17.236Z,711.90
2019-02-18T11:51:47.372Z,720.10
2019-02-18T11:54:18.435Z,721.33
2019-02-18T11:56:48.046Z,723.95
2019-02-18T11:59:24.244Z,723.95
2019-02-18T12:01:52.044Z,728.25
2019-02-18T12:04:21.814Z,734.77
2019-02-18T12:06:51.630Z,739.63
2019-02-18T12:09:21.354Z,740.70
2019-02-18T12:11:51.037Z,748.25
2019-02-18T12:14:20.798Z,756.00
2019-02-18T12:16:50.650Z,752.20
2019-02-18T12:19:20.586Z,759.00
2019-02-18T12:21:51.189Z,760.65
2019-02-18T12:24:20.958Z,752.60
2019-02-18T12:26:51.640Z,765.85
2019-02-18T12:29:26.253Z,765.47
2019-02-18T12:31:52.624Z,753.38
2019-02-18T12:34:22.256Z,749.02
2019-02-18T12:36:52.320Z,755.17
2019-02-18T12:39:22.852Z,764.23
2019-02-18T12:41:52.664Z,772.20
2019-02-18T12:44:22.544Z,782.02
2019-02-18T12:46:52.199Z,780.50
2019-02-18T12:49:21.903Z,783.45
2019-02-18T12:51:51.619Z,783.35
2019-02-18T12:54:21.352Z,783.43
2019-02-18T12:56:51.182Z,789.27
2019-02-18T12:59:21.838Z,790.85
2019-02-18T13:01:51.874Z,796.45
2019-02-18T13:04:21.603Z,806.50
2019-02-18T13:06:51.753Z,795.27
2019-02-18T13:09:21.562Z,806.73
2019-02-18T13:11:58.797Z,798.33
2019-02-18T13:14:22.748Z,799.65
2019-02-18T13:16:52.573Z,790.28
2019-02-18T13:19:22.487Z,800.65
2019-02-18T13:21:52.493Z,806.60
2019-02-18T13:24:22.443Z,802.52
2019-02-18T13:26:52.346Z,804.33
2019-02-18T13:29:21.973Z,807.98
2019-02-18T13:31:51.732Z,812.23
2019-02-18T13:34:21.585Z,808.15
2019-02-18T13:36:52.789Z,813.40
2019-02-18T13:39:22.708Z,823.45
2019-02-18T13:41:52.328Z,823.47
2019-02-18T13:44:22.083Z,813.25
2019-02-18T13:46:51.956Z,815.62
2019-02-18T13:49:21.814Z,820.37
2019-02-18T13:51:56.635Z,826.28
2019-02-18T13:54:22.855Z,810.65
2019-02-18T13:56:52.523Z,806.30
2019-02-18T13:59:22.269Z,808.80
2019-02-18T14:01:51.946Z,824.83
2019-02-18T14:04:21.711Z,833.25
2019-02-18T14:06:51.652Z,836.70
2019-02-18T14:09:21.554Z,826.70
2019-02-18T14:11:51.390Z,831.20
2019-02-18T14:14:21.004Z,826.80
2019-02-18T14:16:50.753Z,823.93
2019-02-18T14:19:20.689Z,822.38
2019-02-18T14:21:50.811Z,817.60
2019-02-18T14:24:20.707Z,815.03
2019-02-18T14:26:50.448Z,810.77
2019-02-18T14:29:21.194Z,818.15
2019-02-18T14:31:50.942Z,809.62
2019-02-18T14:34:20.723Z,800.05
2019-02-18T14:36:50.451Z,789.50
2019-02-18T14:39:21.941Z,787.88
2019-02-18T14:41:51.806Z,793.50
2019-02-18T14:44:21.717Z,786.00
2019-02-18T14:46:51.511Z,786.47
2019-02-18T14:49:21.633Z,787.48
2019-02-18T14:51:51.512Z,791.08
2019-02-18T14:54:21.509Z,785.92
2019-02-18T14:56:51.381Z,790.20
2019-02-18T14:59:21.161Z,781.08
2019-02-18T15:01:50.913Z,780.58
2019-02-18T15:04:20.756Z,771.50
2019-02-18T15:06:50.526Z,778.73
2019-02-18T15:09:20.620Z,777.05
2019-02-18T15:11:50.238Z,782.08
2019-02-18T15:14:19.976Z,780.15
2019-02-18T15:16:49.650Z,769.62
2019-02-18T15:19:19.305Z,766.38
2019-02-18T15:21:49.091Z,769.65
2019-02-18T15:24:18.815Z,762.30
2019-02-18T15:26:48.916Z,768.83
2019-02-18T15:29:18.734Z,767.40
2019-02-18T15:31:48.898Z,772.42
2019-02-18T15:34:18.552Z,768.55
2019-02-18T15:36:48.303Z,767.50
2019-02-18T15:39:18.117Z,769.80
2019-02-18T15:41:48.073Z,766.92
2019-02-18T15:44:18.332Z,763.03
2019-02-18T15:46:49.940Z,763.10
2019-02-18T15:49:19.666Z,765.38
2019-02-18T15:51:49.442Z,753.62
2019-02-18T15:54:20.144Z,762.58
2019-02-18T15:56:50.813Z,749.12
2019-02-18T15:59:21.738Z,742.80
2019-02-18T16:01:51.707Z,742.48
2019-02-18T16:04:21.463Z,742.42
2019-02-18T16:06:51.181Z,754.92
2019-02-18T16:09:20.834Z,746.22
2019-02-18T16:11:51.429Z,742.77
2019-02-18T16:14:21.317Z,734.22
2019-02-18T16:16:51.140Z,731.90
2019-02-18T16:19:21.147Z,734.15
2019-02-18T16:21:50.869Z,728.05
2019-02-18T16:24:20.625Z,724.77
2019-02-18T16:26:50.380Z,713.40
2019-02-18T16:29:20.262Z,714.20
2019-02-18T16:31:50.165Z,700.98
2019-02-18T16:34:19.822Z,701.20
2019-02-18T16:36:49.588Z,687.58
2019-02-18T16:39:19.249Z,682.25
2019-02-18T16:41:49.013Z,681.30
2019-02-18T16:44:18.776Z,669.60
2019-02-18T16:46:48.612Z,660.70
2019-02-18T16:49:18.204Z,660.48
2019-02-18T16:51:47.996Z,657.90
2019-02-18T16:54:17.758Z,644.42
2019-02-18T16:56:48.564Z,625.20
2019-02-18T16:59:18.357Z,626.60
2019-02-18T17:01:48.125Z,620.15
2019-02-18T17:04:17.929Z,613.33
2019-02-18T17:06:47.540Z,611.60
2019-02-18T17:09:17.311Z,606.47
2019-02-18T17:11:46.896Z,608.13
2019-02-18T17:14:16.612Z,598.58
2019-02-18T17:16:46.374Z,601.50
2019-02-18T17:19:16.135Z,593.77
2019-02-18T17:21:45.824Z,598.08
2019-02-18T17:24:15.454Z,593.20
2019-02-18T17:26:45.219Z,591.62
2019-02-18T17:29:14.960Z,584.77
2019-02-18T17:31:44.648Z,583.62
2019-02-18T17:34:14.465Z,582.07
2019-02-18T17:36:44.240Z,581.45
2019-02-18T17:39:14.785Z,581.83
2019-02-18T17:41:44.473Z,584.40
2019-02-18T17:44:20.186Z,570.55
2019-02-18T17:46:46.061Z,579.10
2019-02-18T17:49:15.934Z,564.97
2019-02-18T17:51:46.889Z,563.58
2019-02-18T17:54:16.856Z,561.17
2019-02-18T17:56:46.603Z,559.80
2019-02-18T17:59:16.405Z,554.85
2019-02-18T18:01:46.241Z,558.47
2019-02-18T18:04:16.064Z,545.05
2019-02-18T18:06:45.915Z,545.33
2019-02-18T18:09:16.519Z,532.05
2019-02-18T18:11:46.438Z,538.83
2019-02-18T18:14:18.131Z,527.45
2019-02-18T18:16:47.893Z,545.40
2019-02-18T18:19:17.566Z,544.10
2019-02-18T18:21:47.711Z,534.77
2019-02-18T18:24:17.427Z,527.00
2019-02-18T18:26:48.168Z,531.58
2019-02-18T18:29:18.051Z,535.95
2019-02-18T18:31:47.820Z,529.08
2019-02-18T18:34:17.703Z,529.83
2019-02-18T18:36:47.758Z,533.30
2019-02-18T18:39:17.501Z,528.33
2019-02-18T18:41:47.281Z,530.48
2019-02-18T18:44:17.009Z,521.00
2019-02-18T18:46:47.647Z,510.13
2019-02-18T18:49:17.515Z,507.17
2019-02-18T18:51:47.271Z,506.70
2019-02-18T18:54:16.936Z,504.62
2019-02-18T18:56:46.805Z,515.85
2019-02-18T18:59:16.587Z,510.75
2019-02-18T19:01:46.367Z,500.62
2019-02-18T19:04:16.205Z,500.53
2019-02-18T19:06:47.811Z,500.72
2019-02-18T19:09:17.553Z,495.70
2019-02-18T19:11:47.384Z,514.27
2019-02-18T19:14:17.136Z,506.93
2019-02-18T19:16:48.132Z,504.45
2019-02-18T19:19:18.970Z,513.85
2019-02-18T19:21:48.687Z,518.75
2019-02-18T19:24:18.543Z,519.15
2019-02-18T19:26:48.281Z,518.20
2019-02-18T19:29:18.019Z,504.20
2019-02-18T19:31:47.829Z,510.87
2019-02-18T19:34:17.574Z,508.83
2019-02-18T19:36:47.336Z,500.10
2019-02-18T19:39:17.066Z,517.95
2019-02-18T19:41:46.823Z,514.30
2019-02-18T19:44:16.915Z,515.75
2019-02-18T19:46:46.698Z,522.40
2019-02-18T19:49:16.362Z,520.98
2019-02-18T19:51:46.131Z,517.22
2019-02-18T19:54:15.862Z,515.02
2019-02-18T19:56:45.562Z,523.37
2019-02-18T19:59:15.308Z,539.13
2019-02-18T20:01:45.942Z,527.05
2019-02-18T20:04:15.660Z,522.83
2019-02-18T20:06:45.257Z,530.03
2019-02-18T20:09:15.429Z,520.33
2019-02-18T20:11:45.581Z,523.97
2019-02-18T20:14:15.360Z,520.33
2019-02-18T20:16:45.296Z,503.20
2019-02-18T20:19:15.140Z,498.60
2019-02-18T20:21:44.890Z,503.32
2019-02-18T20:24:14.679Z,488.60
2019-02-18T20:26:44.605Z,488.85
2019-02-18T20:29:14.979Z,491.43
2019-02-18T20:31:44.929Z,495.48
2019-02-18T20:34:15.084Z,496.55
2019-02-18T20:36:44.766Z,506.30
2019-02-18T20:39:14.845Z,509.87
2019-02-18T20:41:44.809Z,519.28
2019-02-18T20:44:14.600Z,516.00
2019-02-18T20:46:44.483Z,512.92
2019-02-18T20:49:14.261Z,509.77
2019-02-18T20:51:44.075Z,505.25
2019-02-18T20:54:14.104Z,503.40
2019-02-18T20:56:43.908Z,490.60
2019-02-18T20:59:13.590Z,496.15
2019-02-18T21:01:43.262Z,498.58
2019-02-18T21:04:13.636Z,492.33
2019-02-18T21:06:43.615Z,494.93
2019-02-18T21:09:13.473Z,498.13
2019-02-18T21:11:43.214Z,487.05
2019-02-18T21:14:16.199Z,497.60
2019-02-18T21:16:44.461Z,498.55
2019-02-18T21:19:14.155Z,494.02
2019-02-18T21:21:44.078Z,499.05
2019-02-18T21:24:15.746Z,496.63
2019-02-18T21:26:45.426Z,510.93
2019-02-18T21:29:15.094Z,508.68
2019-02-18T21:31:44.764Z,505.18
2019-02-18T21:34:14.722Z,504.05
2019-02-18T21:36:45.232Z,508.92
2019-02-18T21:39:15.812Z,500.90
2019-02-18T21:41:45.548Z,506.02
2019-02-18T21:44:15.255Z,497.10
2019-02-18T21:46:44.924Z,505.70
2019-02-18T21:49:14.902Z,499.23
2019-02-18T21:51:44.720Z,497.82
2019-02-18T21:54:14.628Z,480.07
2019-02-18T21:56:44.232Z,479.80
2019-02-18T21:59:13.929Z,468.85
2019-02-18T22:01:43.699Z,472.67
2019-02-18T22:04:13.403Z,464.25
2019-02-18T22:06:43.159Z,473.57
2019-02-18T22:09:12.882Z,462.57
2019-02-18T22:11:42.555Z,461.28
2019-02-18T22:14:12.313Z,470.00
2019-02-18T22:16:41.982Z,470.90
2019-02-18T22:19:11.679Z,456.15
2019-02-18T22:21:41.437Z,465.10
2019-02-18T22:24:11.165Z,463.95
2019-02-18T22:26:40.890Z,464.00
2019-02-18T22:29:10.631Z,462.72
2019-02-18T22:31:40.313Z,472.37
2019-02-18T22:34:10.323Z,482.30
2019-02-18T22:36:40.114Z,491.10
2019-02-18T22:39:09.851Z,490.98
2019-02-18T22:41:39.881Z,499.48
2019-02-18T22:44:09.672Z,501.55
2019-02-18T22:46:39.455Z,494.20
2019-02-18T22:49:09.549Z,489.78
2019-02-18T22:51:40.405Z,487.40
2019-02-18T22:54:10.114Z,487.25
2019-02-18T22:56:40.758Z,482.17
2019-02-18T22:59:10.392Z,470.27
2019-02-18T23:01:40.361Z,480.90
2019-02-18T23:04:11.384Z,477.20
2019-02-18T23:06:41.060Z,473.73
2019-02-18T23:09:12.462Z,475.75
2019-02-18T23:11:42.186Z,482.10
2019-02-18T23:14:12.248Z,483.83
2019-02-18T23:16:41.925Z,469.75
2019-02-18T23:19:13.528Z,457.52
2019-02-18T23:21:43.283Z,462.67
2019-02-18T23:24:13.031Z,469.40
2019-02-18T23:26:42.693Z,472.50
2019-02-18T23:29:12.373Z,474.42
2019-02-18T23:31:43.045Z,471.07
2019-02-18T23:34:13.708Z,467.35
2019-02-18T23:36:43.376Z,465.80
2019-02-18T23:39:13.195Z,468.95
2019-02-18T23:41:42.914Z,460.27
2019-02-18T23:44:12.590Z,458.15
2019-02-18T23:46:42.276Z,455.60
2019-02-18T23:49:11.977Z,461.80
2019-02-18T23:51:41.595Z,457.38
2019-02-18T23:54:11.450Z,461.25
2019-02-18T23:56:41.062Z,450.10
2019-02-18T23:59:11.561Z,457.25
